Time;durP1;ratioP1;P1;durP2;ratioP2;P2;SDS_P1;SDS_P2;PMS_P1;PMS_P2;Temp;Humidity;BMP_temperature;BMP_pressure;BME280_temperature;BME280_humidity;BME280_pressure;Samples;Min_cycle;Max_cycle;Signal;HPM_P1;HPM_P2
2022/06/18 00:00:42;;;;;;;;;20.75;19.25;;;;;26.83;40.89;101053.31;5057355;28;45441;-72
2022/06/18 00:03:09;;;;;;;;;20.75;19.50;;;;;26.82;40.53;101054.28;5057207;28;45737;-71
2022/06/18 00:05:36;;;;;;;;;20.25;19.75;;;;;26.79;40.58;101055.44;5057414;28;45185;-70
2022/06/18 00:08:04;;;;;;;;;17.25;16.25;;;;;26.80;40.83;101049.03;5057473;28;46417;-68
2022/06/18 00:10:30;;;;;;;;;18.25;18.25;;;;;26.77;40.90;101049.34;5059121;28;45373;-72
2022/06/18 00:16:01;;;;;;;;;19.75;18.75;;;;;26.77;42.04;101049.34;5057268;28;45318;-72
2022/06/18 00:18:27;;;;;;;;;16.75;14.25;;;;;26.73;40.64;101042.56;5056869;28;45403;-71
2022/06/18 00:20:53;;;;;;;;;19.00;18.75;;;;;26.66;41.19;101034.28;5056134;28;45303;-70
2022/06/18 00:23:20;;;;;;;;;19.50;19.50;;;;;26.71;40.42;101044.59;5057093;28;45264;-69
2022/06/18 00:25:49;;;;;;;;;18.75;17.00;;;;;26.67;40.83;101038.69;5057395;28;45240;-70
2022/06/18 00:28:24;;;;;;;;;15.75;14.75;;;;;26.71;41.17;101038.38;5056015;28;48236;-73
2022/06/18 00:30:52;;;;;;;;;14.00;14.00;;;;;26.66;40.74;101042.38;5071894;28;45260;-82
2022/06/18 00:33:18;;;;;;;;;16.50;15.75;;;;;26.62;43.59;101035.59;5063094;28;45845;-82
2022/06/18 00:35:44;;;;;;;;;16.25;16.25;;;;;26.57;42.89;101037.91;5058085;28;45219;-79
2022/06/18 00:38:19;;;;;;;;;14.75;14.75;;;;;26.53;41.57;101042.75;5057389;28;46341;-79
2022/06/18 00:40:45;;;;;;;;;12.00;12.00;;;;;26.49;41.36;101040.53;5057610;28;45280;-79
2022/06/18 00:43:39;;;;;;;;;13.25;12.50;;;;;26.50;41.76;101048.47;5057540;28;45359;-79
2022/06/18 00:46:14;;;;;;;;;10.50;10.50;;;;;26.47;41.60;101047.91;5058232;28;45395;-79
2022/06/18 00:48:39;;;;;;;;;12.00;12.00;;;;;26.44;41.39;101050.94;5056053;28;46494;-80
2022/06/18 00:51:22;;;;;;;;;9.00;9.00;;;;;26.44;40.84;101048.22;5057107;28;45209;-79
2022/06/18 00:53:53;;;;;;;;;11.25;11.25;;;;;26.41;41.10;101046.72;5057303;28;45213;-79
2022/06/18 00:56:21;;;;;;;;;17.25;16.25;;;;;26.40;42.47;101053.94;5058167;28;45331;-79
2022/06/18 00:58:56;;;;;;;;;12.50;11.25;;;;;26.36;41.24;101049.84;5058348;28;46365;-78
2022/06/18 01:01:29;;;;;;;;;13.50;13.50;;;;;26.14;41.75;101024.19;5058512;28;45434;-79
2022/06/18 01:03:55;;;;;;;;;13.00;13.00;;;;;26.29;41.62;101042.56;5062896;28;45445;-77
2022/06/18 01:06:33;;;;;;;;;11.75;11.75;;;;;26.29;41.54;101051.47;5070164;28;44816;-76
2022/06/18 01:09:06;;;;;;;;;12.00;11.00;;;;;26.29;41.46;101045.25;5058453;28;45346;-80
2022/06/18 01:11:36;;;;;;;;;10.50;10.00;;;;;26.03;41.51;101010.94;5056514;28;45423;-79
2022/06/18 01:14:05;;;;;;;;;12.75;11.25;;;;;26.25;42.76;101044.69;5056764;28;45259;-78
2022/06/18 01:16:32;;;;;;;;;11.50;9.75;;;;;26.19;41.29;101043.47;5057174;28;45548;-79
2022/06/18 01:18:57;;;;;;;;;12.50;12.50;;;;;26.18;41.80;101044.47;5055575;28;48095;-80
2022/06/18 01:21:49;;;;;;;;;12.75;11.50;;;;;26.21;41.10;101043.31;5056853;28;45293;-80
2022/06/18 01:24:23;;;;;;;;;12.00;12.00;;;;;26.16;43.54;101045.63;5056625;28;45509;-80
2022/06/18 01:26:51;;;;;;;;;11.25;11.25;;;;;26.08;41.41;101025.63;5057318;28;45420;-79
2022/06/18 01:29:18;;;;;;;;;11.50;11.50;;;;;26.07;41.45;101028.50;5056480;28;45394;-79
2022/06/18 01:31:45;;;;;;;;;11.50;11.50;;;;;26.08;42.14;101028.31;5056647;28;45284;-79
2022/06/18 01:34:11;;;;;;;;;11.00;11.00;;;;;26.05;41.78;101017.03;5054197;28;45272;-78
2022/06/18 01:36:38;;;;;;;;;9.50;9.50;;;;;26.05;41.67;101031.31;5054728;28;45543;-78
2022/06/18 01:39:09;;;;;;;;;11.00;9.25;;;;;25.96;41.59;101018.78;5054694;28;46777;-79
2022/06/18 01:41:52;;;;;;;;;9.00;9.00;;;;;26.00;42.10;101030.94;5056011;28;45302;-77
2022/06/18 01:44:29;;;;;;;;;10.50;9.25;;;;;25.88;42.55;101011.44;5055714;28;45435;-75
2022/06/18 01:47:03;;;;;;;;;9.25;9.25;;;;;25.95;41.81;101026.00;5056511;28;45334;-77
2022/06/18 01:49:35;;;;;;;;;10.25;10.25;;;;;25.93;41.78;101019.06;5055950;28;46075;-77
2022/06/18 01:52:05;;;;;;;;;8.50;8.50;;;;;25.91;41.90;101013.81;5056493;28;45326;-77
2022/06/18 01:54:52;;;;;;;;;14.00;9.75;;;;;25.85;41.92;101009.03;5055975;28;45228;-78
2022/06/18 01:57:27;;;;;;;;;9.75;9.75;;;;;25.90;41.66;101014.00;5056253;28;45283;-79
2022/06/18 02:00:00;;;;;;;;;9.50;9.50;;;;;25.76;42.79;100991.09;5055716;28;45709;-78
2022/06/18 02:02:25;;;;;;;;;10.75;10.75;;;;;25.81;42.94;101010.34;5055925;28;45269;-78
2022/06/18 02:04:51;;;;;;;;;11.75;11.75;;;;;25.78;42.60;101006.13;5055779;28;45259;-78
2022/06/18 02:07:18;;;;;;;;;10.25;10.25;;;;;25.79;42.61;101005.13;5088855;27;45251;-76
2022/06/18 02:10:06;;;;;;;;;9.00;9.00;;;;;25.79;42.42;101010.50;5055811;28;46066;-77
2022/06/18 02:12:36;;;;;;;;;10.75;10.75;;;;;25.77;42.83;101000.88;5055670;28;45344;-77
2022/06/18 02:15:16;;;;;;;;;12.25;12.25;;;;;25.76;42.71;101002.72;5055619;28;45300;-77
2022/06/18 02:17:42;;;;;;;;;14.00;11.75;;;;;25.67;42.40;100992.88;5055698;28;45533;-77
2022/06/18 02:20:23;;;;;;;;;12.50;11.00;;;;;25.73;43.31;101000.34;5055513;28;45394;-78
2022/06/18 02:22:52;;;;;;;;;16.25;13.00;;;;;25.69;43.03;100995.38;5055897;28;45450;-77
2022/06/18 02:25:21;;;;;;;;;14.25;13.50;;;;;25.69;42.63;101000.78;5055237;28;45436;-78
2022/06/18 02:27:49;;;;;;;;;12.75;12.75;;;;;25.64;42.40;100987.78;5063592;28;45569;-77
2022/06/18 02:30:25;;;;;;;;;10.75;10.75;;;;;25.65;43.04;100998.38;5060589;28;45488;-78
2022/06/18 02:33:01;;;;;;;;;13.25;13.25;;;;;25.63;42.79;100995.00;5056825;28;45336;-76
2022/06/18 02:35:29;;;;;;;;;13.00;11.50;;;;;25.62;42.98;100987.91;5055787;28;45322;-77
2022/06/18 02:37:56;;;;;;;;;15.50;12.25;;;;;25.62;43.47;100987.09;5071304;28;45454;-77
2022/06/18 02:40:28;;;;;;;;;12.50;11.25;;;;;25.58;43.47;100988.38;5070913;27;45502;-77
2022/06/18 02:42:57;;;;;;;;;11.50;11.50;;;;;25.57;43.23;100984.81;5056839;28;45256;-77
2022/06/18 02:45:24;;;;;;;;;13.25;13.25;;;;;25.55;43.66;100980.59;5055511;28;45434;-78
2022/06/18 02:47:51;;;;;;;;;14.50;13.50;;;;;25.39;43.57;100955.13;5055282;28;45533;-77
2022/06/18 02:50:20;;;;;;;;;14.00;14.00;;;;;25.51;43.69;100978.22;5055014;28;45402;-77
2022/06/18 02:52:52;;;;;;;;;11.75;11.75;;;;;25.47;44.11;100963.34;5055595;28;45185;-77
2022/06/18 02:55:21;;;;;;;;;12.50;12.50;;;;;25.46;43.72;100960.78;5055710;28;45287;-78
2022/06/18 02:57:52;;;;;;;;;12.75;11.50;;;;;25.40;44.17;100951.44;5055756;28;45389;-78
2022/06/18 03:00:18;;;;;;;;;13.50;13.50;;;;;25.35;44.13;100942.94;5053779;28;47061;-76
2022/06/18 03:02:43;;;;;;;;;15.75;15.75;;;;;25.34;44.15;100946.66;5055143;28;45428;-77
2022/06/18 03:05:18;;;;;;;;;14.25;13.25;;;;;25.31;44.43;100946.94;5055297;28;45245;-77
2022/06/18 03:07:43;;;;;;;;;12.75;12.75;;;;;25.31;44.49;100953.19;5055539;28;45459;-77
2022/06/18 03:12:53;;;;;;;;;16.75;14.00;;;;;25.24;44.26;100934.09;5055600;28;45347;-76
2022/06/18 03:15:19;;;;;;;;;15.00;15.00;;;;;25.23;44.82;100940.47;5055766;28;45283;-76
2022/06/18 03:17:44;;;;;;;;;13.75;13.75;;;;;25.19;44.62;100924.78;5056029;28;45601;-77
2022/06/18 03:20:15;;;;;;;;;15.00;13.75;;;;;25.16;44.52;100915.13;5055398;28;45335;-76
2022/06/18 03:22:41;;;;;;;;;14.00;12.25;;;;;25.11;44.66;100908.53;5055146;28;45365;-77
2022/06/18 03:25:07;;;;;;;;;13.50;12.75;;;;;25.17;44.94;100921.38;5054880;28;45284;-77
2022/06/18 03:27:32;;;;;;;;;13.25;13.00;;;;;25.14;44.28;100910.91;5053928;28;45347;-76
2022/06/18 03:29:57;;;;;;;;;14.00;14.00;;;;;25.12;44.93;100915.59;5054526;27;46429;-76
2022/06/18 03:32:23;;;;;;;;;14.50;13.50;;;;;25.08;44.80;100915.91;5054325;28;45332;-76
2022/06/18 03:34:48;;;;;;;;;12.00;12.00;;;;;25.04;44.11;100908.25;5069958;28;45400;-77
2022/06/18 03:37:14;;;;;;;;;13.50;12.75;;;;;24.99;44.37;100895.28;5054783;28;45363;-75
2022/06/18 03:39:39;;;;;;;;;12.75;11.25;;;;;24.99;44.62;100891.72;5054356;28;45497;-76
2022/06/18 03:42:05;;;;;;;;;14.50;13.25;;;;;24.98;44.41;100895.41;5054690;28;45223;-77
2022/06/18 03:44:31;;;;;;;;;11.75;11.75;;;;;25.03;44.56;100906.56;5054436;28;45286;-77
2022/06/18 03:46:59;;;;;;;;;13.50;11.50;;;;;25.02;44.20;100900.34;5054562;28;45258;-77
2022/06/18 03:49:27;;;;;;;;;13.25;13.00;;;;;25.00;44.32;100909.56;5054074;28;45440;-77
2022/06/18 03:51:54;;;;;;;;;12.75;11.25;;;;;25.00;44.45;100902.34;5054287;28;45408;-76
2022/06/18 03:54:19;;;;;;;;;15.50;12.75;;;;;25.00;44.98;100904.19;5054369;28;45234;-76
2022/06/18 03:56:45;;;;;;;;;12.25;12.25;;;;;24.96;44.69;100897.41;5054965;28;45211;-73
2022/06/18 03:59:11;;;;;;;;;12.25;12.25;;;;;24.98;44.53;100900.78;5057986;28;45352;-76
2022/06/18 04:01:40;;;;;;;;;12.25;11.75;;;;;24.98;44.66;100904.34;5058226;28;45381;-76
2022/06/18 04:04:09;;;;;;;;;12.50;12.50;;;;;24.99;44.91;100907.88;5057145;28;45360;-76
2022/06/18 04:06:35;;;;;;;;;14.50;13.00;;;;;24.97;44.80;100901.78;5058461;28;45234;-77
2022/06/18 04:09:03;;;;;;;;;9.00;8.50;;;;;24.91;44.93;100889.75;5057990;28;46053;-77
2022/06/18 04:11:28;;;;;;;;;15.75;14.75;;;;;24.97;44.77;100904.47;5058365;28;45425;-74
2022/06/18 04:13:54;;;;;;;;;13.00;13.00;;;;;24.94;45.12;100889.50;5057621;28;45433;-75
2022/06/18 04:16:19;;;;;;;;;12.50;12.50;;;;;24.97;44.99;100901.78;5057991;28;45565;-73
2022/06/18 04:18:45;;;;;;;;;13.25;13.25;;;;;24.96;45.40;100887.50;5056308;28;47483;-73
2022/06/18 04:21:10;;;;;;;;;14.00;14.00;;;;;24.99;45.01;100897.09;5057565;28;45410;-73
2022/06/18 04:23:36;;;;;;;;;11.75;11.75;;;;;25.01;45.13;100892.41;5057728;28;45244;-73
2022/06/18 04:26:02;;;;;;;;;69.67;61.33;;;;;25.04;45.04;100890.28;5057787;28;45557;-75
2022/06/18 04:28:27;;;;;;;;;11.50;11.50;;;;;25.06;44.92;100890.13;5057506;28;45415;-77
2022/06/18 04:30:53;;;;;;;;;11.50;11.00;;;;;25.03;45.51;100893.97;5057264;28;45429;-76
2022/06/18 04:33:18;;;;;;;;;12.25;12.25;;;;;25.01;45.25;100878.97;5057513;28;45457;-75
2022/06/18 04:35:44;;;;;;;;;15.75;12.50;;;;;25.07;44.86;100884.59;5039814;28;45428;-77
2022/06/18 04:38:11;;;;;;;;;14.25;11.50;;;;;25.12;44.44;100883.31;5057249;28;45671;-73
2022/06/18 04:40:37;;;;;;;;;10.25;10.25;;;;;25.14;44.93;100876.75;5057791;28;45394;-77
2022/06/18 04:43:05;;;;;;;;;14.00;11.00;;;;;25.23;44.90;100883.09;5058058;28;45224;-78
2022/06/18 04:45:31;;;;;;;;;12.00;10.75;;;;;25.21;44.14;100875.16;5062030;28;45248;-78
2022/06/18 04:47:57;;;;;;;;;10.75;10.75;;;;;25.32;44.46;100886.72;5074248;28;45514;-78
2022/06/18 04:50:27;;;;;;;;;11.50;10.50;;;;;25.33;44.31;100889.28;5071555;28;44841;-79
2022/06/18 04:52:52;;;;;;;;;13.50;13.50;;;;;25.34;44.25;100885.59;5061489;28;45287;-73
2022/06/18 04:55:18;;;;;;;;;12.75;11.00;;;;;25.46;44.08;100905.09;5057797;28;45250;-77
2022/06/18 04:57:44;;;;;;;;;12.25;11.00;;;;;25.48;44.22;100907.63;5057193;28;46299;-74
2022/06/18 05:00:11;;;;;;;;;11.25;10.25;;;;;25.52;44.08;100903.63;5057137;28;45430;-73
2022/06/18 05:02:37;;;;;;;;;10.50;9.50;;;;;25.62;43.65;100907.09;5055765;28;45414;-74
2022/06/18 05:05:05;;;;;;;;;7.75;7.75;;;;;25.71;43.79;100899.97;5057110;28;45613;-73
2022/06/18 05:07:31;;;;;;;;;14.50;13.25;;;;;25.83;43.91;100905.94;5056608;28;46384;-74
2022/06/18 05:09:56;;;;;;;;;12.00;11.00;;;;;25.94;43.21;100902.19;5053791;28;45387;-74
2022/06/18 05:12:21;;;;;;;;;12.75;11.50;;;;;26.07;42.78;100904.50;5056839;28;45730;-75
2022/06/18 05:14:47;;;;;;;;;11.00;11.00;;;;;26.15;43.04;100901.91;5056700;28;45224;-75
2022/06/18 05:17:18;;;;;;;;;11.00;10.00;;;;;26.31;42.64;100909.25;5056692;28;45261;-73
2022/06/18 05:19:44;;;;;;;;;14.25;13.00;;;;;26.43;42.36;100895.50;5056643;28;45256;-75
2022/06/18 05:22:10;;;;;;;;;13.75;12.25;;;;;26.54;41.98;100885.31;5056814;28;45243;-74
2022/06/18 05:24:36;;;;;;;;;11.75;11.75;;;;;26.69;41.85;100882.88;5055344;28;45550;-75
2022/06/18 05:27:02;;;;;;;;;14.25;12.50;;;;;26.78;41.92;100891.84;5056502;28;46528;-75
2022/06/18 05:29:27;;;;;;;;;14.00;13.00;;;;;26.89;41.77;100892.59;5056569;28;45463;-75
2022/06/18 05:31:53;;;;;;;;;13.50;13.25;;;;;26.78;41.39;100870.25;5056541;28;45336;-74
2022/06/18 05:34:18;;;;;;;;;11.75;11.75;;;;;26.96;41.42;100889.09;5056491;28;45579;-74
2022/06/18 05:36:44;;;;;;;;;11.00;10.00;;;;;27.01;40.94;100876.97;5055947;28;45972;-73
2022/06/18 05:39:13;;;;;;;;;11.75;10.00;;;;;27.13;40.95;100875.66;5056489;28;45288;-72
2022/06/18 05:41:39;;;;;;;;;9.50;9.50;;;;;27.25;40.78;100873.50;5056410;28;45415;-74
2022/06/18 05:44:04;;;;;;;;;11.00;11.00;;;;;27.36;40.89;100872.34;5056255;28;45188;-70
2022/06/18 05:46:30;;;;;;;;;13.50;12.25;;;;;27.43;40.88;100884.16;5055780;28;47115;-67
2022/06/18 05:48:55;;;;;;;;;11.75;11.75;;;;;27.50;40.73;100873.59;5054554;28;45381;-68
2022/06/18 05:51:21;;;;;;;;;12.50;12.50;;;;;27.57;40.52;100877.31;5055992;28;45686;-69
2022/06/18 05:53:46;;;;;;;;;16.75;16.75;;;;;27.61;40.72;100875.16;5055990;28;45359;-68
2022/06/18 05:56:12;;;;;;;;;12.00;12.00;;;;;27.61;40.59;100867.03;5054528;28;47310;-69
2022/06/18 05:58:37;;;;;;;;;12.25;11.75;;;;;27.60;40.36;100865.34;5055606;28;45402;-69
2022/06/18 06:01:04;;;;;;;;;11.00;11.00;;;;;27.59;40.50;100866.38;5054400;28;45705;-70
2022/06/18 06:03:30;;;;;;;;;9.75;9.75;;;;;27.64;39.92;100872.94;5055674;28;45311;-69
2022/06/18 06:05:55;;;;;;;;;17.25;17.25;;;;;27.65;39.97;100868.41;5055149;28;45521;-69
2022/06/18 06:08:20;;;;;;;;;15.50;12.75;;;;;27.64;40.30;100861.31;5055120;28;45311;-67
2022/06/18 06:13:30;;;;;;;;;11.00;11.00;;;;;27.79;40.14;100854.22;5055461;28;45371;-69
2022/06/18 06:15:56;;;;;;;;;11.25;11.25;;;;;27.84;39.58;100854.53;5055282;28;46019;-70
2022/06/18 06:18:23;;;;;;;;;11.75;11.75;;;;;27.91;39.71;100860.09;5055268;28;45380;-69
2022/06/18 06:20:52;;;;;;;;;14.00;13.50;;;;;27.93;39.78;100854.53;5055318;28;45215;-69
2022/06/18 06:23:19;;;;;;;;;14.00;14.00;;;;;27.91;39.85;100852.00;5055381;28;45534;-69
2022/06/18 06:25:46;;;;;;;;;12.50;12.50;;;;;27.87;39.92;100853.34;5055468;28;46118;-69
2022/06/18 06:28:18;;;;;;;;;13.00;11.50;;;;;27.83;40.03;100850.16;5055366;28;45458;-70
2022/06/18 06:30:43;;;;;;;;;13.75;12.50;;;;;27.79;39.85;100840.69;5055471;28;45405;-69
2022/06/18 06:33:09;;;;;;;;;12.25;12.25;;;;;27.86;39.56;100854.38;5055382;28;45431;-69
2022/06/18 06:35:35;;;;;;;;;11.75;11.75;;;;;27.83;40.21;100860.97;5054728;28;46645;-68
2022/06/18 06:38:02;;;;;;;;;12.00;12.00;;;;;27.87;40.27;100850.66;5054927;28;45365;-69
2022/06/18 06:40:28;;;;;;;;;12.25;12.25;;;;;27.94;39.74;100850.81;5087749;27;45319;-68
2022/06/18 06:42:58;;;;;;;;;11.75;11.75;;;;;28.01;39.34;100851.84;5055014;28;45408;-69
2022/06/18 06:45:31;;;;;;;;;13.00;13.00;;;;;28.02;39.40;100840.00;5070231;28;48158;-69
2022/06/18 06:47:57;;;;;;;;;12.75;11.25;;;;;28.12;39.27;100854.19;5054822;28;45488;-69
2022/06/18 06:50:25;;;;;;;;;11.50;11.50;;;;;28.18;39.15;100854.53;5054874;28;45323;-68
2022/06/18 06:52:51;;;;;;;;;12.25;12.25;;;;;28.22;38.79;100853.19;5055227;28;45407;-68
2022/06/18 06:58:10;;;;;;;;;13.75;12.00;;;;;28.29;39.30;100870.41;5054738;28;45433;-68
2022/06/18 07:00:41;;;;;;;;;10.50;10.50;;;;;28.26;39.37;100866.22;5054754;28;45364;-69
2022/06/18 07:03:06;;;;;;;;;13.00;13.00;;;;;28.27;38.88;100865.19;5055322;28;45494;-70
2022/06/18 07:05:31;;;;;;;;;18.75;15.75;;;;;28.36;39.13;100870.59;5055582;28;45487;-69
2022/06/18 07:07:57;;;;;;;;;11.25;11.00;;;;;28.40;38.91;100863.81;5054743;28;45210;-70
2022/06/18 07:10:22;;;;;;;;;13.75;13.75;;;;;28.47;39.00;100863.94;5054402;28;45664;-69
2022/06/18 07:12:48;;;;;;;;;15.50;14.25;;;;;28.52;38.75;100854.31;5054852;28;45374;-69
2022/06/18 07:15:13;;;;;;;;;12.75;12.75;;;;;28.62;39.04;100858.69;5054441;28;46302;-70
2022/06/18 07:17:38;;;;;;;;;13.75;13.75;;;;;28.65;38.78;100859.19;5054354;28;45422;-69
2022/06/18 07:20:05;;;;;;;;;17.00;14.00;;;;;28.77;37.89;100862.38;5054256;28;45347;-68
2022/06/18 07:22:32;;;;;;;;;11.25;11.25;;;;;28.85;38.30;100867.75;5054439;28;45415;-69
2022/06/18 07:24:58;;;;;;;;;11.75;11.50;;;;;28.93;38.39;100866.88;5054112;28;45415;-69
2022/06/18 07:27:23;;;;;;;;;12.50;11.75;;;;;28.95;37.74;100864.84;5053993;28;45209;-69
2022/06/18 07:29:49;;;;;;;;;13.50;12.50;;;;;29.03;37.68;100863.13;5054240;28;45386;-69
2022/06/18 07:32:17;;;;;;;;;13.75;13.50;;;;;29.08;37.69;100858.00;5055645;28;45481;-72
2022/06/18 07:34:44;;;;;;;;;15.75;14.50;;;;;29.14;38.00;100857.31;5057600;28;45456;-69
2022/06/18 07:37:10;;;;;;;;;13.25;13.25;;;;;29.22;37.47;100856.44;5057381;28;45493;-70
2022/06/18 07:39:35;;;;;;;;;13.50;13.50;;;;;29.25;37.43;100839.81;5057395;28;45407;-71
2022/06/18 07:42:03;;;;;;;;;12.00;12.00;;;;;29.36;37.34;100850.25;5057462;28;45482;-69
2022/06/18 07:44:28;;;;;;;;;14.50;14.50;;;;;29.47;37.17;100843.56;5057344;28;45476;-69
2022/06/18 07:47:03;;;;;;;;;14.25;14.25;;;;;29.55;37.66;100840.81;5057372;28;45180;-69
2022/06/18 07:49:29;;;;;;;;;14.00;13.00;;;;;29.62;36.97;100849.06;5057343;27;45307;-70
2022/06/18 07:51:54;;;;;;;;;14.00;14.00;;;;;29.67;37.43;100851.22;5057741;28;45665;-69
2022/06/18 07:54:20;;;;;;;;;15.00;14.00;;;;;29.76;37.32;100855.56;5057092;28;46267;-71
2022/06/18 07:56:45;;;;;;;;;13.00;13.00;;;;;29.79;37.12;100848.94;5057881;28;45230;-69
2022/06/18 07:59:12;;;;;;;;;18.75;15.75;;;;;29.83;37.31;100839.41;5057124;28;45319;-71
2022/06/18 08:01:38;;;;;;;;;14.00;14.00;;;;;29.93;37.00;100840.00;5056116;28;45234;-70
2022/06/18 08:04:05;;;;;;;;;12.00;12.00;;;;;30.00;36.42;100834.72;5057144;28;46226;-69
2022/06/18 08:06:30;;;;;;;;;17.50;15.50;;;;;30.06;36.70;100833.13;5057075;28;45303;-70
2022/06/18 08:08:55;;;;;;;;;18.00;18.00;;;;;30.12;37.08;100829.66;5066370;28;45717;-69
2022/06/18 08:11:21;;;;;;;;;14.00;13.00;;;;;30.23;36.26;100833.81;5077012;28;45559;-70
2022/06/18 08:13:49;;;;;;;;;15.00;13.25;;;;;30.31;35.97;100828.28;5075860;28;46238;-68
2022/06/18 08:16:16;;;;;;;;;14.75;14.75;;;;;30.42;35.66;100827.81;5077187;28;45394;-74
2022/06/18 08:18:42;;;;;;;;;15.75;13.25;;;;;30.46;35.90;100817.44;5075693;27;45209;-68
2022/06/18 08:21:18;;;;;;;;;14.25;13.50;;;;;30.54;35.51;100822.78;5076769;28;45219;-72
2022/06/18 08:23:45;;;;;;;;;16.00;15.75;;;;;30.59;35.53;100811.38;5076808;28;45477;-71
2022/06/18 08:26:10;;;;;;;;;15.50;14.50;;;;;30.60;35.45;100803.06;5076287;27;45465;-73
2022/06/18 08:28:38;;;;;;;;;14.50;13.25;;;;;30.74;35.04;100804.03;5076635;28;45460;-64
2022/06/18 08:31:05;;;;;;;;;15.75;13.75;;;;;30.87;34.51;100807.97;5077214;27;45415;-65
2022/06/18 08:33:31;;;;;;;;;14.25;12.00;;;;;30.95;35.17;100807.88;5076825;27;45391;-71
2022/06/18 08:35:59;;;;;;;;;14.75;14.75;;;;;31.00;34.92;100808.13;5075409;28;45522;-69
2022/06/18 08:38:25;;;;;;;;;14.50;14.50;;;;;31.08;34.86;100812.59;5076702;27;45401;-70
2022/06/18 08:41:14;;;;;;;;;14.75;14.75;;;;;31.22;34.30;100810.91;5077494;28;45476;-68
2022/06/18 08:44:12;;;;;;;;;16.25;16.25;;;;;31.33;34.17;100794.06;5076694;27;45339;-65
2022/06/18 08:46:59;;;;;;;;;20.75;20.75;;;;;31.47;34.15;100796.91;5076932;28;45332;-68
2022/06/18 08:49:54;;;;;;;;;13.00;13.00;;;;;31.55;34.02;100783.19;5076931;28;45343;-65
2022/06/18 08:52:36;;;;;;;;;15.50;15.50;;;;;31.69;33.36;100791.47;5077079;27;45259;-65
2022/06/18 08:55:08;;;;;;;;;15.50;15.50;;;;;31.75;33.28;100788.84;5076604;27;45968;-64
2022/06/18 08:57:47;;;;;;;;;17.25;15.25;;;;;31.86;32.68;100789.31;5076452;27;45433;-64
2022/06/18 09:00:26;;;;;;;;;17.00;15.75;;;;;31.96;32.50;100778.09;5076298;28;45377;-65
2022/06/18 09:02:58;;;;;;;;;16.75;15.25;;;;;32.10;32.03;100776.28;5076842;27;45322;-63
2022/06/18 09:05:35;;;;;;;;;15.50;15.50;;;;;32.20;32.18;100764.03;5076343;27;46655;-65
2022/06/18 09:08:10;;;;;;;;;14.25;14.25;;;;;32.28;31.58;100765.72;5076268;28;45328;-68
2022/06/18 09:11:00;;;;;;;;;15.50;15.50;;;;;32.36;31.36;100761.22;5076107;27;45262;-67
2022/06/18 09:13:32;;;;;;;;;15.25;14.50;;;;;32.41;31.88;100756.81;5076676;28;45482;-69
2022/06/18 09:16:02;;;;;;;;;16.00;16.00;;;;;32.55;31.60;100759.59;5076454;27;46380;-67
2022/06/18 09:18:47;;;;;;;;;14.25;14.25;;;;;32.65;31.82;100760.06;5079573;28;45297;-70
2022/06/18 09:21:18;;;;;;;;;14.25;14.25;;;;;32.72;30.98;100754.66;5076531;28;45369;-71
2022/06/18 09:23:50;;;;;;;;;16.75;15.25;;;;;32.82;30.68;100746.06;5076272;27;45294;-66
2022/06/18 09:26:24;;;;;;;;;14.25;12.25;;;;;32.88;31.25;100753.47;5076488;27;45460;-68
2022/06/18 09:28:55;;;;;;;;;12.00;11.75;;;;;32.96;30.29;100749.69;5076373;28;45413;-65
2022/06/18 09:31:30;;;;;;;;;16.25;14.75;;;;;33.00;29.90;100748.25;5076152;28;45288;-64
2022/06/18 09:34:21;;;;;;;;;18.00;16.75;;;;;33.08;29.91;100748.03;5075877;27;45359;-64
2022/06/18 09:36:54;;;;;;;;;17.50;17.50;;;;;33.21;29.47;100741.78;5075641;27;46405;-64
2022/06/18 09:39:29;;;;;;;;;13.25;13.25;;;;;33.31;29.34;100736.75;5075618;27;45260;-65
2022/06/18 09:42:04;;;;;;;;;13.75;12.50;;;;;33.29;28.85;100717.03;5075888;27;45411;-65
2022/06/18 09:45:06;;;;;;;;;10.75;10.75;;;;;33.51;27.96;100730.50;5075580;28;45447;-67
2022/06/18 09:47:36;;;;;;;;;21.00;17.75;;;;;33.61;28.11;100724.63;5067023;28;46246;-65
2022/06/18 09:50:03;;;;;;;;;14.00;14.00;;;;;33.67;28.29;100723.78;5075318;28;45417;-65
2022/06/18 09:52:34;;;;;;;;;11.50;11.50;;;;;33.78;27.91;100716.81;5075280;28;45413;-66
2022/06/18 09:55:07;;;;;;;;;11.75;11.75;;;;;33.88;27.40;100719.94;5075012;27;45430;-63
2022/06/18 09:57:37;;;;;;;;;8.25;8.25;;;;;33.97;27.32;100717.84;5075149;28;46408;-64
2022/06/18 10:00:18;;;;;;;;;13.25;11.25;;;;;34.06;27.30;100716.56;5075336;27;45480;-66
2022/06/18 10:02:57;;;;;;;;;16.75;16.00;;;;;34.14;27.14;100706.47;5074105;28;45466;-65
2022/06/18 10:08:14;;;;;;;;;14.50;14.50;;;;;34.33;26.59;100697.34;5075288;28;45458;-64
2022/06/18 10:10:51;;;;;;;;;14.25;14.25;;;;;34.42;27.01;100697.09;5075077;27;45360;-66
2022/06/18 10:13:24;;;;;;;;;14.50;12.75;;;;;34.48;26.59;100691.66;5075464;27;45412;-65
2022/06/18 10:15:51;;;;;;;;;13.00;13.00;;;;;34.57;26.40;100694.13;5075417;27;45469;-71
2022/06/18 10:18:25;;;;;;;;;13.75;13.75;;;;;34.62;26.17;100680.66;5075258;27;45527;-72
2022/06/18 10:21:01;;;;;;;;;13.00;13.00;;;;;34.72;26.57;100682.91;5075200;27;45351;-72
2022/06/18 10:23:40;;;;;;;;;16.25;14.25;;;;;34.78;26.40;100669.19;5075838;27;45369;-67
2022/06/18 10:26:31;;;;;;;;;14.25;14.25;;;;;34.92;25.94;100671.81;5075480;27;45535;-67
2022/06/18 10:29:22;;;;;;;;;8.75;8.75;;;;;34.96;25.25;100667.59;5066494;28;46262;-64
2022/06/18 10:32:18;;;;;;;;;11.25;9.75;;;;;35.03;24.96;100665.69;5074995;28;45263;-66
2022/06/18 10:35:02;;;;;;;;;14.50;13.75;;;;;35.06;24.42;100659.78;5090366;27;45475;-64
2022/06/18 10:37:48;;;;;;;;;11.25;11.00;;;;;35.08;24.67;100662.28;5075471;28;45278;-64
2022/06/18 10:40:31;;;;;;;;;13.00;13.00;;;;;35.12;24.83;100674.44;5074882;28;45398;-67
2022/06/18 10:43:42;;;;;;;;;9.50;9.50;;;;;35.16;24.69;100661.16;5075114;28;45272;-65
2022/06/18 10:46:16;;;;;;;;;12.00;12.00;;;;;35.20;24.49;100660.47;5073396;28;45413;-64
2022/06/18 10:48:48;;;;;;;;;13.00;13.00;;;;;35.27;24.34;100646.78;5075029;27;45322;-67
2022/06/18 10:51:21;;;;;;;;;13.75;12.00;;;;;35.28;24.71;100640.25;5074721;27;45503;-65
2022/06/18 10:53:48;;;;;;;;;13.75;12.25;;;;;35.32;24.63;100637.88;5074821;27;45365;-64
2022/06/18 10:56:26;;;;;;;;;16.00;14.50;;;;;35.35;24.95;100629.22;5073343;28;45468;-66
2022/06/18 10:58:53;;;;;;;;;14.00;14.00;;;;;35.44;24.80;100624.31;5075012;28;45334;-65
2022/06/18 11:01:38;;;;;;;;;16.75;12.50;;;;;35.39;24.56;100598.47;5074668;27;46382;-70
2022/06/18 11:04:21;;;;;;;;;10.50;9.00;;;;;35.55;23.97;100612.63;5074664;27;45242;-68
2022/06/18 11:06:48;;;;;;;;;10.50;10.50;;;;;35.67;23.73;100616.28;5073554;28;45295;-68
2022/06/18 11:09:23;;;;;;;;;11.00;11.00;;;;;35.68;23.88;100608.94;5077235;28;45244;-69
2022/06/18 11:12:18;;;;;;;;;13.00;10.75;;;;;35.73;23.85;100611.81;5077690;28;46598;-69
2022/06/18 11:14:44;;;;;;;;;16.50;12.25;;;;;35.78;23.46;100608.38;5077581;28;45386;-65
2022/06/18 11:17:21;;;;;;;;;13.75;12.00;;;;;35.71;23.64;100592.06;5077993;27;45617;-65
2022/06/18 11:19:50;;;;;;;;;12.25;11.25;;;;;35.89;23.82;100599.38;5078002;27;45559;-65
2022/06/18 11:22:28;;;;;;;;;12.75;10.00;;;;;35.98;22.87;100595.25;5077397;27;45556;-65
2022/06/18 11:24:59;;;;;;;;;13.50;13.50;;;;;36.08;23.18;100589.28;5077289;27;45287;-64
2022/06/18 11:27:31;;;;;;;;;11.50;10.00;;;;;36.15;23.03;100585.63;5077051;27;45338;-67
2022/06/18 11:29:57;;;;;;;;;8.50;8.50;;;;;36.21;22.66;100588.28;5077654;27;45317;-67
2022/06/18 11:32:41;;;;;;;;;8.25;8.25;;;;;36.25;22.67;100584.00;5077892;27;45392;-65
2022/06/18 11:35:21;;;;;;;;;13.00;13.00;;;;;36.19;22.79;100568.50;5078977;27;45373;-64
2022/06/18 11:38:04;;;;;;;;;15.50;13.75;;;;;36.18;22.82;100568.72;5077733;27;45263;-65